Maldives Meteorological Service

SYNOP

Station Code SYNOP
43555
AAXX 19064 43555 11458 40708 10305 20232 30109 40111 60001 70500 82201 333 59008 83818 =
43533
AAXX 19064 43533 11456 10906 10308 20239 30112 40114 60001 70500 81100 333 59006 81819=
43577
AAXX 19064 43577 12459 10506 10304 20241 30104 40106 60001 81201 333 59012 81819 =
43588
AAXX 19064 43588 12459 70905 10310 20257 30102 40103 60001 83238 333 59014 83818 87276=
43599
AAXX 19064 43599 12462 32305 10300 20246 30101 40103 60001 82932 333 59016 82818 81919 83076=
Last Updated : 2018-02-19 11:01:16